Time;durP1;ratioP1;P1;durP2;ratioP2;P2;SDS_P1;SDS_P2;PMS_P1;PMS_P2;Temp;Humidity;BMP_temperature;BMP_pressure;BME280_temperature;BME280_humidity;BME280_pressure;Samples;Min_cycle;Max_cycle;Signal;HPM_P1;HPM_P2
2022/11/06 00:01:14;;;;;;;10.30;3.30;;;13.30;99.90;;;;;;5054880;28;20025;-66
2022/11/06 00:03:41;;;;;;;9.75;2.80;;;13.40;99.90;;;;;;5054605;28;20019;-70
2022/11/06 00:08:52;;;;;;;7.55;2.70;;;13.30;99.90;;;;;;5054856;28;20467;-70
2022/11/06 00:11:17;;;;;;;6.55;2.60;;;13.30;99.90;;;;;;5054979;28;20021;-63
2022/11/06 00:13:43;;;;;;;7.07;2.75;;;13.30;99.90;;;;;;5054567;28;20486;-71
2022/11/06 00:16:11;;;;;;;7.82;2.15;;;13.40;99.90;;;;;;5054827;28;20033;-70
2022/11/06 00:18:38;;;;;;;7.00;2.85;;;13.40;99.90;;;;;;5054757;28;20099;-69
2022/11/06 00:21:13;;;;;;;6.85;3.03;;;13.40;99.90;;;;;;5053794;28;20025;-69
2022/11/06 00:23:39;;;;;;;6.15;3.35;;;13.40;99.90;;;;;;5052723;28;20033;-67
2022/11/06 00:26:12;;;;;;;9.88;3.13;;;13.40;99.90;;;;;;5052415;28;20128;-67
2022/11/06 00:28:38;;;;;;;13.98;3.30;;;13.40;99.90;;;;;;5054555;28;20425;-58
2022/11/06 00:31:10;;;;;;;10.05;2.80;;;13.40;99.90;;;;;;5054411;28;20070;-70
2022/11/06 00:33:36;;;;;;;9.35;2.55;;;13.40;99.90;;;;;;5053319;28;20529;-70
2022/11/06 00:36:06;;;;;;;12.40;3.38;;;13.40;99.90;;;;;;5053536;28;20044;-70
2022/11/06 00:38:32;;;;;;;9.57;3.35;;;13.40;99.90;;;;;;5053353;28;20112;-70
2022/11/06 00:41:06;;;;;;;6.07;2.88;;;13.40;99.90;;;;;;5056185;28;20100;-70
2022/11/06 00:43:32;;;;;;;7.20;3.10;;;13.40;99.90;;;;;;5045804;28;20064;-71
2022/11/06 00:46:11;;;;;;;12.32;2.78;;;13.30;99.90;;;;;;5053964;28;20032;-70
2022/11/06 00:48:38;;;;;;;6.47;2.25;;;13.40;99.90;;;;;;5036338;28;20017;-69
2022/11/06 00:51:17;;;;;;;8.48;3.20;;;13.40;99.90;;;;;;5053106;28;20104;-69
2022/11/06 00:53:44;;;;;;;8.38;3.10;;;13.40;99.90;;;;;;5052129;28;20033;-60
2022/11/06 00:56:18;;;;;;;7.03;3.03;;;13.30;99.90;;;;;;5053650;28;20031;-70
2022/11/06 00:58:45;;;;;;;11.82;2.80;;;13.40;99.90;;;;;;5053808;28;20300;-70
2022/11/06 01:01:12;;;;;;;7.00;2.92;;;13.40;99.90;;;;;;5053864;28;20053;-70
2022/11/06 01:03:39;;;;;;;10.57;3.15;;;13.40;99.90;;;;;;5053826;28;20044;-69
2022/11/06 01:06:16;;;;;;;6.38;2.63;;;13.40;99.90;;;;;;5053898;28;20090;-70
2022/11/06 01:08:42;;;;;;;7.57;2.47;;;13.40;99.90;;;;;;5053567;28;20032;-67
2022/11/06 01:11:09;;;;;;;11.05;2.95;;;13.40;99.90;;;;;;5053704;28;20532;-70
2022/11/06 01:13:35;;;;;;;10.77;3.42;;;13.30;99.90;;;;;;5053500;28;20032;-67
2022/11/06 01:16:02;;;;;;;9.18;2.72;;;13.40;99.90;;;;;;5038899;28;20025;-64
2022/11/06 01:18:28;;;;;;;9.77;2.83;;;13.40;99.90;;;;;;5053338;28;20021;-62
2022/11/06 01:20:54;;;;;;;7.97;2.90;;;13.40;99.90;;;;;;5053154;28;20013;-66
2022/11/06 01:23:19;;;;;;;7.63;2.95;;;13.40;99.90;;;;;;5053019;28;20493;-61
2022/11/06 01:26:01;;;;;;;6.03;2.60;;;13.40;99.90;;;;;;5052270;28;20397;-69
2022/11/06 01:28:28;;;;;;;8.52;2.95;;;13.40;99.90;;;;;;5053609;28;20513;-65
2022/11/06 01:30:54;;;;;;;6.55;3.08;;;13.40;99.90;;;;;;5053382;28;20561;-71
2022/11/06 01:33:19;;;;;;;8.23;3.08;;;13.40;99.90;;;;;;5053051;28;20100;-65
2022/11/06 01:35:46;;;;;;;6.72;2.58;;;13.30;99.90;;;;;;5052729;28;20485;-71
2022/11/06 01:38:12;;;;;;;6.68;2.22;;;13.40;99.90;;;;;;5051879;28;20033;-70
2022/11/06 01:40:43;;;;;;;9.82;2.83;;;13.40;99.90;;;;;;5053024;28;20020;-70
2022/11/06 01:43:24;;;;;;;10.82;2.65;;;13.40;99.90;;;;;;5052543;28;20021;-66
2022/11/06 01:45:53;;;;;;;7.83;2.47;;;13.40;99.90;;;;;;5052874;28;20043;-70
2022/11/06 01:48:22;;;;;;;6.53;2.67;;;13.40;99.90;;;;;;5053155;28;20021;-69
2022/11/06 01:50:52;;;;;;;8.00;2.28;;;13.40;99.90;;;;;;5052875;28;20108;-63
2022/11/06 01:53:18;;;;;;;7.55;2.78;;;13.40;99.90;;;;;;5052640;28;20095;-69
2022/11/06 01:55:47;;;;;;;7.40;2.45;;;13.40;99.90;;;;;;5052894;28;20528;-69
2022/11/06 01:58:17;;;;;;;10.07;2.75;;;13.40;99.90;;;;;;5052911;28;20051;-71
2022/11/06 02:00:43;;;;;;;10.05;2.40;;;13.40;99.90;;;;;;5053018;28;20463;-68
2022/11/06 02:03:11;;;;;;;9.40;2.40;;;13.40;99.90;;;;;;5052415;28;20025;-70
2022/11/06 02:05:37;;;;;;;6.05;2.20;;;13.40;99.90;;;;;;5052395;28;20128;-70
2022/11/06 02:08:05;;;;;;;6.97;2.78;;;13.40;99.90;;;;;;5052770;28;20092;-70
2022/11/06 02:10:31;;;;;;;6.68;2.03;;;13.40;99.90;;;;;;5052814;28;20032;-70
2022/11/06 02:13:02;;;;;;;9.02;2.78;;;13.40;99.90;;;;;;5052969;28;20047;-60
2022/11/06 02:15:39;;;;;;;6.93;2.67;;;13.40;99.90;;;;;;5052345;28;20031;-69
2022/11/06 02:18:26;;;;;;;8.05;2.50;;;13.50;99.90;;;;;;5052820;28;20501;-67
2022/11/06 02:21:19;;;;;;;9.05;2.58;;;13.40;99.90;;;;;;5052589;28;20104;-66
2022/11/06 02:24:07;;;;;;;10.60;2.35;;;13.50;99.90;;;;;;5052577;28;20009;-70
2022/11/06 02:26:51;;;;;;;9.43;2.88;;;13.40;99.90;;;;;;5052156;28;20155;-70
2022/11/06 02:29:22;;;;;;;9.38;2.20;;;13.40;99.90;;;;;;5052721;28;20029;-69
2022/11/06 02:31:53;;;;;;;7.20;2.30;;;13.40;99.90;;;;;;5052675;28;20022;-64
2022/11/06 02:34:23;;;;;;;9.30;2.50;;;13.50;99.90;;;;;;5052146;28;20025;-69
2022/11/06 02:37:03;;;;;;;7.15;2.08;;;13.50;99.90;;;;;;5052118;28;20021;-62
2022/11/06 02:39:31;;;;;;;7.43;2.08;;;13.40;99.90;;;;;;5052507;28;20101;-61
2022/11/06 02:41:59;;;;;;;7.18;2.47;;;13.50;99.90;;;;;;5052394;28;20048;-63
2022/11/06 02:44:27;;;;;;;10.95;2.63;;;13.50;99.90;;;;;;5052005;28;20037;-59
2022/11/06 02:47:00;;;;;;;7.35;2.30;;;13.40;99.90;;;;;;5052087;28;20025;-62
2022/11/06 02:49:36;;;;;;;7.47;2.38;;;13.50;99.90;;;;;;5032300;28;20025;-61
2022/11/06 02:52:18;;;;;;;6.80;2.28;;;13.40;99.90;;;;;;5032382;28;20057;-63
2022/11/06 02:54:50;;;;;;;6.15;2.50;;;13.50;99.90;;;;;;5041221;28;20150;-68
2022/11/06 02:57:18;;;;;;;6.75;2.45;;;13.40;99.90;;;;;;5052433;28;20025;-61
2022/11/06 03:00:11;;;;;;;9.50;2.70;;;13.40;99.90;;;;;;5056406;28;20086;-63
2022/11/06 03:02:50;;;;;;;12.88;3.17;;;13.40;99.90;;;;;;5055885;28;20084;-65
2022/11/06 03:05:42;;;;;;;8.20;2.95;;;13.50;99.90;;;;;;5055712;28;20075;-64
2022/11/06 03:08:22;;;;;;;8.27;2.35;;;13.40;99.90;;;;;;5055953;28;20029;-63
2022/11/06 03:11:02;;;;;;;7.70;2.50;;;13.40;99.90;;;;;;5054921;28;20070;-68
2022/11/06 03:13:48;;;;;;;11.85;2.17;;;13.40;99.90;;;;;;5055837;28;20079;-67
2022/11/06 03:16:52;;;;;;;5.18;2.25;;;13.40;99.90;;;;;;5055225;28;20036;-69
2022/11/06 03:19:45;;;;;;;6.82;2.10;;;13.40;99.90;;;;;;5049614;28;20064;-69
2022/11/06 03:22:27;;;;;;;7.35;2.30;;;13.40;99.90;;;;;;5056174;28;20025;-64
2022/11/06 03:25:02;;;;;;;6.65;2.45;;;13.40;99.90;;;;;;5053888;28;20043;-64
2022/11/06 03:27:49;;;;;;;6.50;2.38;;;13.40;99.90;;;;;;5055492;28;20387;-62
2022/11/06 03:30:14;;;;;;;7.68;1.98;;;13.40;99.90;;;;;;5055827;28;20025;-66
2022/11/06 03:32:48;;;;;;;6.70;2.17;;;13.40;99.90;;;;;;5055275;28;20021;-64
2022/11/06 03:35:43;;;;;;;7.63;2.17;;;13.40;99.90;;;;;;5055217;28;20108;-66
2022/11/06 03:38:13;;;;;;;8.98;2.05;;;13.40;99.90;;;;;;5055241;28;20017;-62
2022/11/06 03:40:44;;;;;;;5.78;2.15;;;13.40;99.90;;;;;;5055578;28;20559;-62
2022/11/06 03:43:14;;;;;;;5.72;2.22;;;13.40;99.90;;;;;;5055281;28;20056;-64
2022/11/06 03:45:42;;;;;;;9.10;1.80;;;13.40;99.90;;;;;;5054947;28;20478;-64
2022/11/06 03:48:28;;;;;;;7.32;2.10;;;13.40;99.90;;;;;;5054775;28;20025;-67
2022/11/06 03:51:03;;;;;;;5.57;2.28;;;13.40;99.90;;;;;;5055340;28;20028;-63
2022/11/06 03:53:50;;;;;;;5.57;1.50;;;13.40;99.90;;;;;;5055581;28;20033;-69
2022/11/06 03:56:36;;;;;;;7.03;1.80;;;13.40;99.90;;;;;;5055029;28;20114;-66
2022/11/06 03:59:07;;;;;;;5.95;2.13;;;13.40;99.90;;;;;;5055020;28;20028;-66
2022/11/06 04:01:44;;;;;;;5.55;1.90;;;13.40;99.90;;;;;;5055240;28;20025;-64
2022/11/06 04:04:33;;;;;;;6.60;2.53;;;13.40;99.90;;;;;;5054841;28;20048;-66
2022/11/06 04:07:08;;;;;;;9.27;2.33;;;13.40;99.90;;;;;;5035267;28;20028;-66
2022/11/06 04:15:13;;;;;;;7.35;2.33;;;13.30;99.90;;;;;;5041298;28;20382;-66
2022/11/06 04:17:40;;;;;;;5.97;1.80;;;13.40;99.90;;;;;;5054251;28;20056;-66
2022/11/06 04:20:10;;;;;;;7.65;2.03;;;13.40;99.90;;;;;;5054864;28;20371;-66
2022/11/06 04:22:51;;;;;;;5.70;2.38;;;13.40;99.90;;;;;;5053470;28;20025;-64
2022/11/06 04:28:42;;;;;;;9.65;2.28;;;13.40;99.90;;;;;;5054585;28;20055;-70
2022/11/06 04:31:15;;;;;;;5.25;2.13;;;13.30;99.90;;;;;;5054362;28;20025;-70
2022/11/06 04:33:59;;;;;;;6.25;2.30;;;13.40;99.90;;;;;;5054289;28;20094;-63
2022/11/06 04:37:03;;;;;;;6.78;2.20;;;13.30;99.90;;;;;;5054216;28;20031;-70
2022/11/06 04:39:47;;;;;;;10.35;2.17;;;13.30;99.90;;;;;;5053953;28;20083;-68
2022/11/06 04:42:32;;;;;;;5.07;2.60;;;13.30;99.90;;;;;;5054155;28;20078;-70
2022/11/06 04:45:05;;;;;;;6.88;2.20;;;13.30;99.90;;;;;;5053670;28;20112;-69
2022/11/06 04:47:30;;;;;;;;;;;13.30;99.90;;;;;;5054616;28;20021;-58
2022/11/06 04:49:59;;;;;;;6.38;1.98;;;13.30;99.90;;;;;;5054246;28;20424;-70
2022/11/06 04:52:26;;;;;;;4.82;1.77;;;13.30;99.90;;;;;;5053869;28;20013;-67
2022/11/06 04:54:54;;;;;;;9.25;2.40;;;13.30;99.90;;;;;;5053620;28;20478;-66
2022/11/06 04:57:21;;;;;;;7.35;2.00;;;13.30;99.90;;;;;;5053912;28;20040;-69
2022/11/06 04:59:47;;;;;;;6.70;2.47;;;13.30;99.90;;;;;;5053604;28;20032;-65
2022/11/06 05:02:13;;;;;;;6.68;1.90;;;13.30;99.90;;;;;;5053880;28;20029;-60
2022/11/06 05:04:38;;;;;;;6.40;2.28;;;13.30;99.90;;;;;;5053702;28;20017;-64
2022/11/06 05:07:04;;;;;;;5.45;2.22;;;13.30;99.90;;;;;;5052314;28;20470;-69
2022/11/06 05:09:29;;;;;;;10.20;2.13;;;13.20;99.90;;;;;;5053735;28;20036;-62
2022/11/06 05:11:55;;;;;;;9.48;2.70;;;13.30;99.90;;;;;;5053907;28;20040;-63
2022/11/06 05:14:20;;;;;;;7.85;2.45;;;13.20;99.90;;;;;;5053316;28;20021;-65
2022/11/06 05:16:46;;;;;;;8.05;2.47;;;13.20;99.90;;;;;;5053201;28;20031;-58
2022/11/06 05:19:12;;;;;;;8.30;2.28;;;13.20;99.90;;;;;;5053410;28;20041;-58
2022/11/06 05:24:21;;;;;;;10.15;3.25;;;13.20;99.90;;;;;;5053152;28;20094;-57
2022/11/06 05:26:47;;;;;;;10.38;3.28;;;13.20;99.90;;;;;;5053408;28;20124;-62
2022/11/06 05:29:13;;;;;;;9.80;3.60;;;13.20;99.90;;;;;;5053012;28;20470;-59
2022/11/06 05:31:39;;;;;;;9.50;3.75;;;13.20;99.90;;;;;;5053432;28;20029;-60
2022/11/06 05:34:04;;;;;;;7.18;3.20;;;13.20;99.90;;;;;;5053465;28;20025;-59
2022/11/06 05:36:30;;;;;;;6.28;3.08;;;13.10;99.90;;;;;;5051681;28;20037;-59
2022/11/06 05:38:55;;;;;;;8.55;3.53;;;13.10;99.90;;;;;;5053675;28;20024;-58
2022/11/06 05:41:21;;;;;;;7.85;3.33;;;13.20;99.90;;;;;;5053250;28;20025;-58
2022/11/06 05:43:46;;;;;;;6.82;2.95;;;13.20;99.90;;;;;;5053102;28;20025;-59
2022/11/06 05:46:12;;;;;;;10.23;3.40;;;13.10;99.90;;;;;;5052970;28;20116;-59
2022/11/06 05:48:37;;;;;;;6.38;2.55;;;13.10;99.90;;;;;;5053213;28;20025;-59
2022/11/06 05:51:05;;;;;;;10.35;3.03;;;13.20;99.90;;;;;;5052865;28;20025;-59
2022/11/06 05:53:32;;;;;;;5.97;2.80;;;13.10;99.90;;;;;;5053100;28;20023;-58
2022/11/06 05:55:58;;;;;;;5.57;2.33;;;13.10;99.90;;;;;;5052780;28;20029;-58
2022/11/06 05:58:25;;;;;;;6.78;2.47;;;13.10;99.90;;;;;;5052486;28;20398;-59
2022/11/06 06:00:51;;;;;;;6.57;2.45;;;13.10;99.90;;;;;;5047639;28;20112;-59
2022/11/06 06:03:16;;;;;;;7.65;2.70;;;13.10;99.90;;;;;;5032838;28;20444;-58
2022/11/06 06:05:42;;;;;;;9.23;2.42;;;13.10;99.90;;;;;;5031984;28;20045;-59
2022/11/06 06:08:07;;;;;;;5.95;2.15;;;13.10;99.90;;;;;;5051447;28;20064;-59
2022/11/06 06:10:33;;;;;;;8.93;2.38;;;13.10;99.90;;;;;;5052728;28;20082;-59
2022/11/06 06:12:59;;;;;;;8.45;2.45;;;13.10;99.90;;;;;;5052682;28;20096;-58
2022/11/06 06:15:24;;;;;;;6.68;2.30;;;13.10;99.90;;;;;;5052898;28;20474;-59
2022/11/06 06:17:50;;;;;;;6.72;2.22;;;13.10;99.90;;;;;;5052541;28;20502;-58
2022/11/06 06:20:15;;;;;;;6.20;1.98;;;13.10;99.90;;;;;;5052598;28;20075;-59
2022/11/06 06:22:41;;;;;;;5.00;1.55;;;13.10;99.90;;;;;;5052929;28;20092;-58
2022/11/06 06:25:07;;;;;;;7.15;1.95;;;13.10;99.90;;;;;;5052584;28;20039;-59
2022/11/06 06:27:32;;;;;;;9.32;2.40;;;13.10;99.90;;;;;;5051395;28;20033;-58
2022/11/06 06:29:58;;;;;;;5.20;2.08;;;13.10;99.90;;;;;;5052651;28;20025;-58
2022/11/06 06:32:24;;;;;;;5.68;1.52;;;13.10;99.90;;;;;;5053163;28;20083;-58
2022/11/06 06:34:49;;;;;;;6.15;1.92;;;13.00;99.90;;;;;;5056777;28;20033;-59
2022/11/06 06:37:15;;;;;;;7.38;2.28;;;13.10;99.90;;;;;;5056491;28;20070;-58
2022/11/06 06:39:40;;;;;;;7.70;1.98;;;13.00;99.90;;;;;;5056644;28;20108;-59
2022/11/06 06:42:06;;;;;;;8.93;2.33;;;13.00;99.90;;;;;;5056252;28;20104;-58
2022/11/06 06:44:31;;;;;;;7.45;1.98;;;13.00;99.90;;;;;;5056350;28;20033;-59
2022/11/06 06:46:57;;;;;;;9.23;2.13;;;13.00;99.90;;;;;;5056180;28;20108;-58
2022/11/06 06:49:22;;;;;;;4.50;1.75;;;13.10;99.90;;;;;;5056633;28;20128;-59
2022/11/06 06:51:49;;;;;;;8.45;2.28;;;13.10;99.90;;;;;;5056394;28;20450;-59
2022/11/06 06:54:14;;;;;;;7.55;1.90;;;13.00;99.90;;;;;;5056135;28;20025;-59
2022/11/06 06:56:40;;;;;;;4.75;1.90;;;13.00;99.90;;;;;;5055707;28;20104;-58
2022/11/06 06:59:06;;;;;;;5.75;2.17;;;13.00;99.90;;;;;;5056232;28;20029;-58
2022/11/06 07:01:32;;;;;;;7.60;1.92;;;13.10;99.90;;;;;;5056220;28;20100;-66
2022/11/06 07:03:58;;;;;;;10.00;2.15;;;13.00;99.90;;;;;;5056172;28;20021;-61
2022/11/06 07:06:23;;;;;;;4.97;1.77;;;13.00;99.90;;;;;;5055733;28;20482;-61
2022/11/06 07:08:49;;;;;;;10.93;2.38;;;13.00;99.90;;;;;;5056273;28;20029;-60
2022/11/06 07:11:17;;;;;;;4.43;1.58;;;13.10;99.90;;;;;;5054006;28;20035;-67
2022/11/06 07:13:42;;;;;;;4.70;1.67;;;13.00;99.90;;;;;;5052983;28;20379;-66
2022/11/06 07:16:09;;;;;;;5.70;1.40;;;13.10;99.90;;;;;;5053090;28;20476;-67
2022/11/06 07:18:36;;;;;;;7.85;1.67;;;13.10;99.90;;;;;;5042509;28;20021;-64
2022/11/06 07:21:06;;;;;;;6.45;1.65;;;13.30;99.90;;;;;;5049939;28;20025;-68
2022/11/06 07:23:33;;;;;;;4.00;1.45;;;13.40;99.90;;;;;;5035987;28;20724;-69
2022/11/06 07:25:59;;;;;;;4.00;1.30;;;13.40;99.90;;;;;;5045530;28;20025;-65
2022/11/06 07:28:25;;;;;;;7.00;1.40;;;13.50;99.90;;;;;;5038244;28;20535;-67
2022/11/06 07:30:50;;;;;;;5.10;1.20;;;13.60;99.90;;;;;;5053934;28;20029;-68
2022/11/06 07:33:16;;;;;;;6.82;1.30;;;13.60;99.90;;;;;;5045469;28;20536;-67
2022/11/06 07:35:41;;;;;;;6.18;1.60;;;13.70;99.90;;;;;;5038616;28;20025;-67
2022/11/06 07:38:07;;;;;;;6.03;1.42;;;13.70;99.90;;;;;;5064401;28;20055;-67
2022/11/06 07:40:33;;;;;;;6.30;1.58;;;13.70;99.90;;;;;;5055629;28;20087;-68
2022/11/06 07:43:10;;;;;;;5.70;1.13;;;13.80;99.90;;;;;;5053278;28;20067;-66
2022/11/06 07:45:37;;;;;;;4.55;1.55;;;13.80;99.90;;;;;;5053522;28;20041;-68
2022/11/06 07:48:03;;;;;;;4.70;1.40;;;13.80;99.90;;;;;;5052006;28;20021;-65
2022/11/06 07:50:29;;;;;;;6.05;1.27;;;13.80;99.90;;;;;;5053297;28;20033;-68
2022/11/06 07:52:54;;;;;;;6.25;1.30;;;13.80;99.90;;;;;;5039435;28;20110;-67
2022/11/06 07:55:21;;;;;;;5.88;1.55;;;13.90;99.90;;;;;;5051180;28;20029;-67
2022/11/06 07:57:46;;;;;;;4.88;1.48;;;13.90;99.90;;;;;;5047509;28;20020;-68
2022/11/06 08:00:12;;;;;;;8.18;1.35;;;14.00;99.90;;;;;;5041434;28;20033;-68
2022/11/06 08:02:38;;;;;;;7.82;1.70;;;14.00;99.90;;;;;;5053005;28;20417;-67
2022/11/06 08:05:04;;;;;;;6.82;1.67;;;14.00;99.90;;;;;;5045672;28;20436;-66
2022/11/06 08:07:30;;;;;;;16.85;2.13;;;14.00;99.90;;;;;;5051092;28;20037;-68
2022/11/06 08:09:55;;;;;;;14.07;2.75;;;14.00;99.90;;;;;;5034062;28;20028;-68
2022/11/06 08:12:21;;;;;;;11.48;2.22;;;14.00;99.90;;;;;;5035627;28;20060;-68
2022/11/06 08:14:46;;;;;;;12.82;2.63;;;14.00;99.90;;;;;;5048654;28;20013;-68
2022/11/06 08:17:12;;;;;;;6.40;1.73;;;14.00;99.90;;;;;;5048758;28;20025;-67
2022/11/06 08:19:37;;;;;;;10.13;2.15;;;14.00;99.90;;;;;;5048440;28;20029;-68
2022/11/06 08:22:03;;;;;;;10.60;1.83;;;14.00;99.90;;;;;;5033075;28;20485;-68
2022/11/06 08:24:28;;;;;;;7.85;2.15;;;14.00;99.90;;;;;;5006523;28;1061125;-66
2022/11/06 08:26:54;;;;;;;5.40;1.65;;;14.00;99.90;;;;;;5053660;28;20087;-68
2022/11/06 08:29:19;;;;;;;6.68;1.77;;;14.00;99.90;;;;;;5052216;28;20033;-68
2022/11/06 08:31:45;;;;;;;7.82;1.73;;;14.10;99.90;;;;;;5051114;28;20032;-68
2022/11/06 08:34:11;;;;;;;5.28;1.25;;;14.10;99.90;;;;;;5053967;28;20025;-67
2022/11/06 08:36:44;;;;;;;12.55;1.98;;;14.10;99.80;;;;;;5051920;28;20107;-65
2022/11/06 08:39:10;;;;;;;9.55;2.47;;;14.20;99.90;;;;;;5053790;28;20028;-67
2022/11/06 08:41:38;;;;;;;10.57;2.17;;;14.10;99.90;;;;;;5053731;28;20466;-68
2022/11/06 08:44:03;;;;;;;12.23;1.77;;;14.20;99.90;;;;;;5052649;28;20021;-68
2022/11/06 08:46:29;;;;;;;9.23;1.63;;;14.20;99.90;;;;;;5052147;28;20478;-68
2022/11/06 08:48:54;;;;;;;11.80;2.10;;;14.20;99.90;;;;;;5054103;28;20024;-68
2022/11/06 08:51:20;;;;;;;6.90;1.85;;;14.30;99.90;;;;;;5053820;28;20032;-68
2022/11/06 08:53:46;;;;;;;7.53;1.38;;;14.30;99.80;;;;;;5053415;28;20025;-66
2022/11/06 08:56:11;;;;;;;6.60;1.95;;;14.30;99.80;;;;;;5053540;28;20504;-67
2022/11/06 08:58:37;;;;;;;7.45;1.13;;;14.40;99.90;;;;;;5053455;28;20029;-67
2022/11/06 09:01:02;;;;;;;13.43;2.22;;;14.40;99.90;;;;;;5050417;28;20389;-67
2022/11/06 09:03:28;;;;;;;5.97;1.50;;;14.40;99.90;;;;;;5053922;28;21735;-67
2022/11/06 09:05:53;;;;;;;12.70;2.25;;;14.40;99.90;;;;;;5047945;28;20033;-67
2022/11/06 09:08:19;;;;;;;9.63;1.70;;;14.40;99.90;;;;;;5049534;28;20377;-66
2022/11/06 09:10:44;;;;;;;6.80;1.70;;;14.40;99.90;;;;;;5052988;28;20465;-67
2022/11/06 09:13:11;;;;;;;10.70;1.52;;;14.40;99.90;;;;;;5050612;28;20548;-67
2022/11/06 09:15:37;;;;;;;7.95;1.73;;;14.40;99.90;;;;;;5053114;28;20048;-66
2022/11/06 09:18:02;;;;;;;6.78;1.52;;;14.40;99.90;;;;;;5050926;28;20056;-67
2022/11/06 09:20:28;;;;;;;4.78;1.63;;;14.40;99.90;;;;;;5041584;28;20033;-67
2022/11/06 09:22:58;;;;;;;4.32;1.40;;;14.40;99.90;;;;;;5053572;28;20017;-67
2022/11/06 09:25:24;;;;;;;9.15;2.17;;;14.40;99.90;;;;;;5052301;28;20040;-67
2022/11/06 09:27:53;;;;;;;7.60;1.60;;;14.40;99.90;;;;;;5044124;28;20025;-66
2022/11/06 09:30:20;;;;;;;5.28;1.50;;;14.40;99.90;;;;;;5052158;28;20061;-67
2022/11/06 09:32:51;;;;;;;11.93;2.08;;;14.40;99.90;;;;;;5052307;28;20061;-66
2022/11/06 09:35:17;;;;;;;13.40;2.42;;;14.40;99.90;;;;;;5052156;28;20021;-62
2022/11/06 09:37:43;;;;;;;17.92;2.78;;;14.40;99.90;;;;;;5050287;28;20104;-68
2022/11/06 09:40:18;;;;;;;13.68;1.92;;;14.40;99.90;;;;;;5049588;28;20409;-67
2022/11/06 09:42:56;;;;;;;8.70;1.75;;;14.40;99.90;;;;;;5049676;28;20108;-67
2022/11/06 09:45:27;;;;;;;7.18;1.75;;;14.50;99.90;;;;;;5051285;28;20037;-61
2022/11/06 09:48:18;;;;;;;9.25;1.52;;;14.50;99.90;;;;;;5051649;28;20027;-64
2022/11/06 09:50:55;;;;;;;6.95;1.42;;;14.50;99.90;;;;;;5047754;28;20029;-66
2022/11/06 09:53:50;;;;;;;6.78;1.65;;;14.50;99.90;;;;;;5051193;28;20025;-67
2022/11/06 09:56:19;;;;;;;3.45;1.20;;;14.50;99.90;;;;;;5050387;28;20020;-67
2022/11/06 09:58:45;;;;;;;4.07;1.30;;;14.50;99.90;;;;;;5050836;28;20494;-68
2022/11/06 10:01:21;;;;;;;8.93;1.50;;;14.50;99.90;;;;;;5052654;28;20385;-67
2022/11/06 10:03:56;;;;;;;9.57;2.33;;;14.60;99.90;;;;;;5053999;28;20490;-67
2022/11/06 10:06:23;;;;;;;11.27;2.10;;;14.60;99.90;;;;;;5056279;28;20024;-65
2022/11/06 10:08:50;;;;;;;7.72;1.75;;;14.60;99.90;;;;;;5050637;28;20033;-67
2022/11/06 10:11:16;;;;;;;5.45;1.40;;;14.60;99.90;;;;;;5051164;28;20048;-66
2022/11/06 10:14:03;;;;;;;6.60;2.40;;;14.60;99.90;;;;;;5053320;28;20466;-62
2022/11/06 10:16:29;;;;;;;5.43;1.45;;;14.60;99.90;;;;;;5051999;28;20027;-67
2022/11/06 10:19:03;;;;;;;5.70;1.23;;;14.60;99.90;;;;;;5046750;28;20025;-61
2022/11/06 10:21:50;;;;;;;6.53;1.63;;;14.60;99.90;;;;;;5051860;28;20029;-67
2022/11/06 10:24:20;;;;;;;8.65;1.75;;;14.60;99.90;;;;;;5052760;28;20060;-63
2022/11/06 10:26:56;;;;;;;5.22;1.35;;;14.60;99.90;;;;;;5036534;28;20051;-60
2022/11/06 10:29:30;;;;;;;5.22;1.23;;;14.60;99.90;;;;;;5037519;28;20070;-63
2022/11/06 10:32:20;;;;;;;11.88;1.63;;;14.60;99.90;;;;;;5043866;28;20017;-62
2022/11/06 10:34:53;;;;;;;7.13;1.35;;;14.70;99.90;;;;;;5054941;28;20112;-65
2022/11/06 10:37:24;;;;;;;8.50;2.08;;;14.60;99.90;;;;;;5060420;28;20029;-66
2022/11/06 10:39:51;;;;;;;9.02;1.33;;;14.60;99.80;;;;;;5051043;28;20025;-67
2022/11/06 10:42:23;;;;;;;3.58;1.48;;;14.60;99.90;;;;;;5053179;28;20021;-64
2022/11/06 10:44:51;;;;;;;10.15;1.83;;;14.60;99.90;;;;;;5050780;28;20033;-64
2022/11/06 10:47:22;;;;;;;5.35;1.60;;;14.60;99.90;;;;;;5045594;28;20052;-67
2022/11/06 10:49:53;;;;;;;8.05;1.80;;;14.60;99.90;;;;;;5045540;28;20398;-63
2022/11/06 10:52:44;;;;;;;5.80;1.55;;;14.70;99.90;;;;;;5043929;28;20032;-63
2022/11/06 10:55:47;;;;;;;7.65;1.42;;;14.70;99.90;;;;;;5047846;28;20025;-65
2022/11/06 10:58:16;;;;;;;7.18;1.50;;;14.70;99.90;;;;;;5053280;28;20065;-59
2022/11/06 11:00:42;;;;;;;6.00;1.05;;;14.70;99.90;;;;;;5048625;28;20033;-64
2022/11/06 11:03:30;;;;;;;6.50;1.95;;;14.70;99.90;;;;;;5051491;28;20032;-61
2022/11/06 11:05:56;;;;;;;6.82;1.40;;;14.70;99.90;;;;;;5055244;28;20111;-63
2022/11/06 11:08:37;;;;;;;5.53;1.13;;;14.70;99.90;;;;;;5046159;28;20060;-67
2022/11/06 11:11:04;;;;;;;9.75;1.52;;;14.80;99.90;;;;;;5044524;28;20025;-60
2022/11/06 11:13:30;;;;;;;5.50;1.40;;;14.80;99.90;;;;;;5043778;28;20039;-61
2022/11/06 11:15:56;;;;;;;7.03;1.63;;;14.80;99.80;;;;;;5045333;28;20074;-66
2022/11/06 11:18:31;;;;;;;4.82;1.52;;;14.80;98.90;;;;;;5046846;28;20558;-60
2022/11/06 11:21:07;;;;;;;5.72;1.50;;;14.80;98.60;;;;;;5043736;28;20493;-62
2022/11/06 11:23:32;;;;;;;5.13;1.83;;;14.70;98.30;;;;;;5041142;28;20033;-63
2022/11/06 11:26:24;;;;;;;5.85;1.92;;;14.70;98.10;;;;;;5052382;28;20047;-67
2022/11/06 11:29:12;;;;;;;7.33;1.47;;;14.70;98.00;;;;;;5046644;28;20115;-58
2022/11/06 11:31:38;;;;;;;4.97;1.50;;;14.70;98.80;;;;;;5049065;28;20069;-59
2022/11/06 11:34:14;;;;;;;4.60;1.58;;;14.70;98.80;;;;;;5050052;28;20026;-64
2022/11/06 11:36:52;;;;;;;10.57;2.13;;;14.80;99.10;;;;;;5040263;28;20563;-62
2022/11/06 11:39:20;;;;;;;5.53;1.30;;;14.80;99.40;;;;;;5046713;28;20102;-65
2022/11/06 11:41:46;;;;;;;7.30;1.45;;;14.80;99.20;;;;;;5056927;28;20032;-65
2022/11/06 11:44:17;;;;;;;4.70;1.40;;;14.80;99.30;;;;;;5047608;28;20018;-67
2022/11/06 11:46:51;;;;;;;4.68;1.23;;;14.90;99.50;;;;;;5050289;28;20029;-65
2022/11/06 11:49:30;;;;;;;6.03;1.58;;;14.90;99.20;;;;;;5043466;28;20108;-65
2022/11/06 11:52:00;;;;;;;10.68;1.77;;;14.90;99.50;;;;;;5049929;28;20405;-64
2022/11/06 11:54:31;;;;;;;8.77;1.70;;;14.90;99.50;;;;;;5046037;28;20785;-65
2022/11/06 11:56:58;;;;;;;7.20;1.60;;;14.90;99.40;;;;;;5051408;28;20037;-65
2022/11/06 11:59:43;;;;;;;10.75;1.90;;;14.90;99.50;;;;;;5055818;28;20028;-66
2022/11/06 12:02:24;;;;;;;6.25;1.73;;;14.90;99.50;;;;;;5063593;28;20070;-59
2022/11/06 12:04:54;;;;;;;6.00;1.50;;;14.90;99.40;;;;;;5060173;28;20049;-66
2022/11/06 12:07:34;;;;;;;8.80;2.03;;;14.90;99.60;;;;;;5064402;28;20021;-64
2022/11/06 12:10:21;;;;;;;9.98;2.45;;;14.90;99.60;;;;;;5054223;28;20102;-67
2022/11/06 12:12:49;;;;;;;8.10;1.80;;;14.90;99.80;;;;;;5053916;28;20033;-66
2022/11/06 12:15:27;;;;;;;8.30;2.63;;;14.90;99.90;;;;;;5056489;28;20021;-67
2022/11/06 12:18:04;;;;;;;7.35;1.58;;;14.90;99.90;;;;;;5052134;28;20537;-66
2022/11/06 12:20:35;;;;;;;8.40;2.58;;;14.90;99.90;;;;;;5053486;28;20036;-63
2022/11/06 12:23:03;;;;;;;9.60;2.42;;;15.00;99.90;;;;;;5058819;28;20021;-66
2022/11/06 12:25:40;;;;;;;9.90;3.72;;;14.90;99.90;;;;;;5049411;28;20036;-67
2022/11/06 12:28:16;;;;;;;6.28;2.83;;;14.90;99.90;;;;;;5044827;28;20024;-66
2022/11/06 12:30:45;;;;;;;8.43;2.10;;;14.90;99.90;;;;;;5048457;28;20025;-64
2022/11/06 12:33:16;;;;;;;8.57;2.72;;;14.90;99.90;;;;;;5047082;28;20021;-68
2022/11/06 12:35:54;;;;;;;9.70;2.45;;;14.90;99.90;;;;;;5054992;28;20103;-65
2022/11/06 12:38:43;;;;;;;12.32;2.50;;;15.00;99.90;;;;;;5071584;28;20439;-67
2022/11/06 12:41:20;;;;;;;10.70;2.65;;;15.00;99.90;;;;;;5039056;28;20094;-65
2022/11/06 12:43:46;;;;;;;6.15;2.28;;;15.10;99.90;;;;;;5042881;28;20021;-67
2022/11/06 12:46:30;;;;;;;8.20;1.98;;;15.10;99.90;;;;;;5044724;28;20029;-67
2022/11/06 12:49:27;;;;;;;8.50;2.22;;;15.10;99.90;;;;;;5039025;28;20477;-67
2022/11/06 12:52:13;;;;;;;8.27;1.92;;;15.10;99.90;;;;;;5037961;28;20029;-60
2022/11/06 12:54:55;;;;;;;8.40;2.28;;;15.10;99.90;;;;;;5033415;28;20029;-66
2022/11/06 12:57:56;;;;;;;6.57;2.13;;;15.00;99.90;;;;;;5045640;28;20478;-68
2022/11/06 13:00:26;;;;;;;6.00;2.28;;;15.00;99.90;;;;;;5043689;28;20087;-67
2022/11/06 13:03:10;;;;;;;6.60;2.25;;;15.00;99.90;;;;;;5050284;28;20025;-66
2022/11/06 13:05:51;;;;;;;5.95;1.85;;;14.90;99.90;;;;;;5046448;28;20094;-57
2022/11/06 13:08:34;;;;;;;4.90;1.95;;;14.90;99.90;;;;;;5057050;28;20051;-62
2022/11/06 13:11:19;;;;;;;10.02;2.08;;;14.90;99.90;;;;;;5052871;28;20028;-67
2022/11/06 13:14:12;;;;;;;5.35;1.83;;;14.90;99.90;;;;;;5039155;28;20025;-61
2022/11/06 13:16:53;;;;;;;6.47;1.90;;;14.90;99.90;;;;;;5043398;28;20124;-70
2022/11/06 13:19:44;;;;;;;5.38;1.80;;;14.90;99.90;;;;;;5059487;28;20034;-70
2022/11/06 13:22:16;;;;;;;6.90;2.10;;;14.90;99.90;;;;;;5046265;28;20037;-69